createdAt,value
2023-01-09T00:05:16.872Z,11.23
2023-01-09T00:08:20.039Z,4.20
2023-01-09T00:11:23.691Z,4.95
2023-01-09T00:14:26.983Z,3.22
2023-01-09T00:17:30.059Z,5.57
2023-01-09T00:20:33.342Z,6.37
2023-01-09T00:23:37.441Z,22.60
2023-01-09T00:26:41.197Z,28.50
2023-01-09T00:29:50.199Z,26.88
2023-01-09T00:32:56.101Z,25.95
2023-01-09T00:35:59.325Z,18.88
2023-01-09T00:39:02.872Z,24.25
2023-01-09T00:42:07.712Z,14.10
2023-01-09T00:45:15.428Z,3.87
2023-01-09T00:48:27.200Z,9.15
2023-01-09T00:51:30.476Z,4.22
2023-01-09T00:54:33.815Z,6.90
2023-01-09T00:57:37.122Z,3.05
2023-01-09T01:00:40.280Z,6.78
2023-01-09T01:03:43.374Z,6.47
2023-01-09T01:07:04.840Z,8.97
2023-01-09T01:10:11.246Z,9.68
2023-01-09T01:13:15.004Z,16.20
2023-01-09T01:16:19.103Z,19.38
2023-01-09T01:19:22.779Z,9.02
2023-01-09T01:22:25.900Z,11.52
2023-01-09T01:25:29.248Z,24.73
2023-01-09T01:28:32.449Z,17.52
2023-01-09T01:31:35.584Z,40.20
2023-01-09T01:34:38.743Z,49.13
2023-01-09T01:37:42.104Z,52.37
2023-01-09T01:40:45.162Z,39.03
2023-01-09T01:43:56.886Z,36.13
2023-01-09T01:47:00.124Z,35.45
2023-01-09T01:50:10.988Z,43.20
2023-01-09T01:53:29.875Z,74.68
2023-01-09T01:56:45.664Z,32.30
2023-01-09T01:59:53.919Z,49.78
2023-01-09T02:02:57.082Z,48.92
2023-01-09T02:06:00.533Z,45.60
2023-01-09T02:09:06.297Z,32.72
2023-01-09T02:12:35.390Z,42.05
2023-01-09T02:16:02.746Z,46.63
2023-01-09T02:19:38.841Z,66.30
2023-01-09T02:23:06.794Z,74.22
2023-01-09T02:26:31.003Z,31.25
2023-01-09T02:29:37.280Z,31.88
2023-01-09T02:32:51.574Z,70.35
2023-01-09T02:36:17.261Z,67.60
2023-01-09T02:39:31.907Z,56.53
2023-01-09T02:42:36.990Z,41.63
2023-01-09T02:45:40.248Z,38.45
2023-01-09T02:48:45.398Z,52.37
2023-01-09T02:52:04.752Z,58.53
2023-01-09T02:55:07.938Z,59.85
2023-01-09T02:58:13.538Z,70.50
2023-01-09T03:01:19.785Z,44.83
2023-01-09T03:04:39.024Z,59.92
2023-01-09T03:07:48.982Z,74.40
2023-01-09T03:11:02.725Z,73.30
2023-01-09T03:14:13.262Z,49.40
2023-01-09T03:17:26.483Z,59.17
2023-01-09T03:20:32.136Z,57.50
2023-01-09T03:23:59.765Z,61.80
2023-01-09T03:27:03.262Z,59.67
2023-01-09T03:30:07.204Z,65.53
2023-01-09T03:33:11.045Z,103.20
2023-01-09T03:36:15.382Z,104.78
2023-01-09T03:42:21.255Z,64.10
2023-01-09T03:45:24.402Z,66.70
2023-01-09T03:48:28.088Z,68.90
2023-01-09T03:51:31.263Z,101.78
2023-01-09T03:54:34.320Z,128.20
2023-01-09T03:57:37.517Z,87.03
2023-01-09T04:00:41.288Z,87.10
2023-01-09T04:03:44.591Z,65.22
2023-01-09T04:06:47.704Z,61.03
2023-01-09T04:09:50.992Z,77.00
2023-01-09T04:12:54.176Z,70.75
2023-01-09T04:15:57.337Z,80.60
2023-01-09T04:19:00.511Z,118.55
2023-01-09T04:22:03.563Z,163.52
2023-01-09T04:25:07.236Z,139.45
2023-01-09T04:28:10.473Z,173.25
2023-01-09T04:31:13.563Z,101.53
2023-01-09T04:34:16.676Z,115.50
2023-01-09T04:37:19.849Z,124.05
2023-01-09T04:40:23.005Z,166.07
2023-01-09T04:43:26.399Z,78.32
2023-01-09T04:46:29.549Z,128.18
2023-01-09T04:49:32.691Z,126.55
2023-01-09T04:52:37.579Z,137.68
2023-01-09T04:55:44.854Z,138.02
2023-01-09T04:58:48.248Z,149.90
2023-01-09T05:01:53.602Z,155.60
2023-01-09T05:04:56.883Z,140.95
2023-01-09T05:08:00.252Z,131.95
2023-01-09T05:11:03.478Z,129.85
2023-01-09T05:14:06.695Z,121.72
2023-01-09T05:17:09.880Z,141.65
2023-01-09T05:20:13.197Z,136.93
2023-01-09T05:23:16.373Z,152.32
2023-01-09T05:26:24.604Z,146.93
2023-01-09T05:29:27.883Z,166.32
2023-01-09T05:32:31.008Z,173.18
2023-01-09T05:35:34.254Z,158.60
2023-01-09T05:38:37.654Z,167.75
2023-01-09T05:41:40.683Z,143.75
2023-01-09T05:44:43.739Z,170.40
2023-01-09T05:47:47.178Z,193.65
2023-01-09T05:50:50.423Z,148.20
2023-01-09T05:53:53.540Z,154.88
2023-01-09T05:56:56.680Z,168.55
2023-01-09T05:59:59.818Z,159.80
2023-01-09T06:03:03.037Z,181.15
2023-01-09T06:06:06.485Z,165.93
2023-01-09T06:09:09.738Z,167.15
2023-01-09T06:12:12.898Z,170.20
2023-01-09T06:15:16.220Z,166.48
2023-01-09T06:18:19.538Z,170.65
2023-01-09T06:21:22.816Z,168.38
2023-01-09T06:24:26.082Z,154.68
2023-01-09T06:27:29.265Z,164.32
2023-01-09T06:30:32.442Z,161.93
2023-01-09T06:33:35.655Z,139.52
2023-01-09T06:36:38.902Z,158.10
2023-01-09T06:39:41.975Z,174.65
2023-01-09T06:42:46.512Z,173.35
2023-01-09T06:45:49.914Z,156.95
2023-01-09T06:48:54.638Z,172.40
2023-01-09T06:51:57.799Z,156.80
2023-01-09T06:55:00.775Z,161.18
2023-01-09T06:58:03.876Z,156.93
2023-01-09T07:01:07.136Z,171.77
2023-01-09T07:04:13.467Z,163.55
2023-01-09T07:07:16.874Z,157.50
2023-01-09T07:10:20.024Z,157.80
2023-01-09T07:13:23.040Z,164.93
2023-01-09T07:16:26.293Z,158.90
2023-01-09T07:19:29.470Z,158.25
2023-01-09T07:22:32.567Z,159.10
2023-01-09T07:25:35.676Z,172.35
2023-01-09T07:28:38.803Z,183.05
2023-01-09T07:31:42.057Z,158.52
2023-01-09T07:34:45.365Z,166.60
2023-01-09T07:37:48.555Z,157.65
2023-01-09T07:40:51.795Z,221.15
2023-01-09T07:43:54.948Z,209.27
2023-01-09T07:46:58.157Z,200.93
2023-01-09T07:50:01.249Z,209.38
2023-01-09T07:53:04.354Z,171.75
2023-01-09T07:56:07.859Z,172.20
2023-01-09T07:59:11.056Z,173.43
2023-01-09T08:02:14.381Z,196.77
2023-01-09T08:05:17.524Z,207.02
2023-01-09T08:08:20.681Z,195.48
2023-01-09T08:11:23.860Z,181.63
2023-01-09T08:14:26.996Z,199.98
2023-01-09T08:17:30.087Z,193.23
2023-01-09T08:20:33.527Z,182.00
2023-01-09T08:23:36.661Z,115.68
2023-01-09T08:26:39.783Z,166.93
2023-01-09T08:29:42.827Z,189.43
2023-01-09T08:32:50.950Z,177.20
2023-01-09T08:35:56.557Z,179.57
2023-01-09T08:38:59.729Z,168.13
2023-01-09T08:42:21.152Z,158.38
2023-01-09T08:45:42.452Z,195.43
2023-01-09T08:48:45.635Z,206.90
2023-01-09T08:51:48.743Z,194.52
2023-01-09T08:54:51.999Z,253.57
2023-01-09T08:57:55.898Z,324.55
2023-01-09T09:01:01.928Z,291.10
2023-01-09T09:04:06.061Z,252.75
2023-01-09T09:07:09.224Z,211.05
2023-01-09T09:10:12.506Z,183.00
2023-01-09T09:13:15.821Z,157.82
2023-01-09T09:16:19.053Z,172.55
2023-01-09T09:19:22.368Z,181.45
2023-01-09T09:22:25.456Z,213.20
2023-01-09T09:25:29.107Z,198.93
2023-01-09T09:28:32.743Z,105.00
2023-01-09T09:31:39.160Z,148.53
2023-01-09T09:34:42.768Z,134.57
2023-01-09T09:37:58.325Z,91.65
2023-01-09T09:41:51.251Z,94.40
2023-01-09T09:45:17.760Z,72.90
2023-01-09T09:48:29.861Z,45.65
2023-01-09T09:51:40.745Z,82.22
2023-01-09T09:54:51.226Z,64.55
2023-01-09T09:57:55.387Z,51.85
2023-01-09T10:01:00.944Z,60.88
2023-01-09T10:04:11.105Z,46.53
2023-01-09T10:07:42.393Z,44.85
2023-01-09T10:10:53.459Z,64.88
2023-01-09T10:14:08.154Z,80.13
2023-01-09T10:18:08.601Z,51.80
2023-01-09T10:21:46.675Z,96.10
2023-01-09T10:25:30.065Z,78.72
2023-01-09T10:29:00.777Z,63.80
2023-01-09T10:32:21.107Z,59.78
2023-01-09T10:35:49.237Z,45.60
2023-01-09T10:38:56.371Z,94.07
2023-01-09T10:42:11.986Z,60.85
2023-01-09T10:45:47.787Z,53.45
2023-01-09T10:49:20.451Z,60.53
2023-01-09T10:52:34.235Z,68.28
2023-01-09T10:55:59.340Z,97.25
2023-01-09T10:59:03.980Z,119.80
2023-01-09T11:02:29.464Z,84.45
2023-01-09T11:05:42.517Z,97.75
2023-01-09T11:08:51.991Z,145.15
2023-01-09T11:11:56.018Z,197.65
2023-01-09T11:15:21.982Z,204.45
2023-01-09T11:18:31.160Z,215.43
2023-01-09T11:21:43.172Z,208.00
2023-01-09T11:25:08.502Z,180.65
2023-01-09T11:28:12.096Z,138.38
2023-01-09T11:31:29.324Z,204.60
2023-01-09T11:34:36.128Z,151.90
2023-01-09T11:37:40.895Z,163.65
2023-01-09T11:40:57.055Z,146.70
2023-01-09T11:44:04.450Z,93.78
2023-01-09T11:47:27.652Z,134.43
2023-01-09T11:50:33.655Z,72.85
2023-01-09T11:53:54.227Z,71.10
2023-01-09T11:56:58.338Z,71.13
2023-01-09T12:00:09.122Z,64.57
2023-01-09T12:03:48.391Z,73.07
2023-01-09T12:07:26.610Z,55.65
2023-01-09T12:10:39.181Z,75.25
2023-01-09T12:14:16.994Z,44.35
2023-01-09T12:17:26.665Z,68.45
2023-01-09T12:20:52.253Z,78.25
2023-01-09T12:24:32.960Z,82.43
2023-01-09T12:28:16.364Z,95.20
2023-01-09T12:31:25.767Z,164.52
2023-01-09T12:34:45.488Z,231.65
2023-01-09T12:38:07.397Z,291.95
2023-01-09T12:41:38.932Z,201.90
2023-01-09T12:44:52.237Z,290.70
2023-01-09T12:48:10.250Z,245.20
2023-01-09T12:51:42.038Z,203.55
2023-01-09T12:54:54.874Z,211.02
2023-01-09T12:58:06.458Z,204.93
2023-01-09T13:01:28.083Z,170.63
2023-01-09T13:04:42.180Z,110.43
2023-01-09T13:08:13.966Z,113.95
2023-01-09T13:11:44.960Z,63.38
2023-01-09T13:14:53.441Z,103.25
2023-01-09T13:18:25.465Z,140.43
2023-01-09T13:21:34.612Z,166.90
2023-01-09T13:24:53.112Z,318.92
2023-01-09T13:28:02.973Z,171.57
2023-01-09T13:31:21.412Z,211.30
2023-01-09T13:34:30.256Z,282.80
2023-01-09T13:37:36.169Z,179.68
2023-01-09T13:40:39.323Z,169.90
2023-01-09T13:43:55.551Z,218.52
2023-01-09T13:47:02.618Z,248.63
2023-01-09T13:50:09.793Z,238.52
2023-01-09T13:53:41.379Z,243.90
2023-01-09T13:57:19.585Z,190.57
2023-01-09T14:00:22.885Z,247.98
2023-01-09T14:03:34.802Z,249.57
2023-01-09T14:06:38.104Z,220.25
2023-01-09T14:09:48.545Z,226.83
2023-01-09T14:12:55.522Z,184.32
2023-01-09T14:16:24.160Z,132.00
2023-01-09T14:19:35.773Z,160.30
2023-01-09T14:22:50.295Z,149.15
2023-01-09T14:26:03.569Z,57.22
2023-01-09T14:29:44.217Z,77.45
2023-01-09T14:33:00.226Z,51.00
2023-01-09T14:36:14.263Z,133.05
2023-01-09T14:39:19.512Z,69.00
2023-01-09T14:42:30.157Z,115.20
2023-01-09T14:45:36.289Z,196.82
2023-01-09T14:48:50.993Z,219.68
2023-01-09T14:55:03.327Z,165.13
2023-01-09T14:58:36.838Z,172.65
2023-01-09T15:01:45.271Z,139.70
2023-01-09T15:04:48.500Z,177.23
2023-01-09T15:08:04.205Z,171.13
2023-01-09T15:11:07.533Z,243.88
2023-01-09T15:14:26.207Z,231.93
2023-01-09T15:17:37.557Z,223.35
2023-01-09T15:20:40.966Z,213.88
2023-01-09T15:23:44.536Z,245.80
2023-01-09T15:26:54.423Z,191.45
2023-01-09T15:30:15.374Z,215.32
2023-01-09T15:33:19.838Z,112.35
2023-01-09T15:36:25.132Z,217.85
2023-01-09T15:39:40.492Z,248.43
2023-01-09T15:43:01.767Z,208.50
2023-01-09T15:46:05.161Z,199.23
2023-01-09T15:49:13.733Z,179.77
2023-01-09T15:52:18.990Z,172.73
2023-01-09T15:55:39.196Z,133.95
2023-01-09T15:58:50.464Z,119.30
2023-01-09T16:02:20.722Z,146.55
2023-01-09T16:05:33.744Z,129.98
2023-01-09T16:08:54.438Z,144.32
2023-01-09T16:12:00.986Z,148.25
2023-01-09T16:15:04.349Z,99.57
2023-01-09T16:18:32.609Z,121.97
2023-01-09T16:21:38.815Z,146.63
2023-01-09T16:24:42.996Z,154.02
2023-01-09T16:31:01.603Z,107.47
2023-01-09T16:34:07.676Z,126.40
2023-01-09T16:37:13.855Z,128.57
2023-01-09T16:40:23.229Z,132.43
2023-01-09T16:43:26.395Z,143.65
2023-01-09T16:46:29.879Z,184.95
2023-01-09T16:49:34.883Z,100.78
2023-01-09T16:52:38.116Z,103.70
2023-01-09T16:55:41.503Z,94.20
2023-01-09T16:58:45.108Z,114.00
2023-01-09T17:01:51.667Z,83.53
2023-01-09T17:04:59.803Z,85.40
2023-01-09T17:08:02.916Z,96.10
2023-01-09T17:11:06.286Z,51.83
2023-01-09T17:14:12.501Z,71.10
2023-01-09T17:17:17.240Z,80.18
2023-01-09T17:20:23.438Z,75.57
2023-01-09T17:23:26.592Z,76.80
2023-01-09T17:26:47.906Z,106.25
2023-01-09T17:29:51.204Z,101.20
2023-01-09T17:32:54.315Z,75.10
2023-01-09T17:35:58.057Z,73.63
2023-01-09T17:39:02.492Z,97.88
2023-01-09T17:42:05.690Z,107.20
2023-01-09T17:45:09.148Z,68.30
2023-01-09T17:48:20.371Z,67.17
2023-01-09T17:51:23.667Z,92.47
2023-01-09T17:54:26.824Z,80.50
2023-01-09T17:57:29.946Z,100.25
2023-01-09T18:00:37.375Z,84.18
2023-01-09T18:03:41.630Z,70.13
2023-01-09T18:09:48.287Z,35.03
2023-01-09T18:12:53.079Z,65.78
2023-01-09T18:15:56.118Z,67.07
2023-01-09T18:18:59.729Z,35.13
2023-01-09T18:22:04.472Z,71.43
2023-01-09T18:25:08.846Z,72.90
2023-01-09T18:28:15.959Z,64.68
2023-01-09T18:31:23.452Z,80.68
2023-01-09T18:34:26.815Z,114.60
2023-01-09T18:37:30.032Z,84.57
2023-01-09T18:40:33.917Z,115.05
2023-01-09T18:43:37.073Z,47.80
2023-01-09T18:46:41.502Z,75.88
2023-01-09T18:49:44.682Z,134.57
2023-01-09T18:52:47.960Z,77.38
2023-01-09T18:55:51.101Z,78.97
2023-01-09T18:58:58.545Z,79.47
2023-01-09T19:02:02.345Z,72.03
2023-01-09T19:05:05.926Z,68.28
2023-01-09T19:08:09.043Z,79.10
2023-01-09T19:11:12.885Z,85.15
2023-01-09T19:14:16.042Z,74.72
2023-01-09T19:17:19.382Z,68.15
2023-01-09T19:20:22.611Z,110.35
2023-01-09T19:23:25.738Z,103.25
2023-01-09T19:26:31.541Z,94.18
2023-01-09T19:29:36.601Z,118.90
2023-01-09T19:32:40.865Z,113.03
2023-01-09T19:35:49.430Z,72.68
2023-01-09T19:39:00.440Z,112.65
2023-01-09T19:42:03.896Z,77.72
2023-01-09T19:45:07.832Z,110.80
2023-01-09T19:48:10.900Z,81.43
2023-01-09T19:51:16.537Z,99.60
2023-01-09T19:54:19.733Z,104.47
2023-01-09T19:57:23.073Z,107.85
2023-01-09T20:00:26.115Z,97.57
2023-01-09T20:03:29.230Z,81.47
2023-01-09T20:06:32.677Z,84.72
2023-01-09T20:09:35.805Z,75.93
2023-01-09T20:12:39.100Z,81.53
2023-01-09T20:15:43.361Z,60.80
2023-01-09T20:21:50.090Z,35.85
2023-01-09T20:24:53.289Z,56.53
2023-01-09T20:27:58.751Z,91.65
2023-01-09T20:31:03.644Z,125.57
2023-01-09T20:34:06.858Z,211.77
2023-01-09T20:37:10.455Z,171.23
2023-01-09T20:40:13.695Z,183.43
2023-01-09T20:43:17.176Z,81.45
2023-01-09T20:46:21.362Z,186.90
2023-01-09T20:49:24.602Z,169.75
2023-01-09T20:52:27.783Z,219.38
2023-01-09T20:55:31.194Z,199.52
2023-01-09T20:58:35.217Z,155.68
2023-01-09T21:01:39.531Z,180.07
2023-01-09T21:07:45.446Z,120.95
2023-01-09T21:10:48.757Z,138.85
2023-01-09T21:13:52.116Z,170.57
2023-01-09T21:16:55.606Z,175.43
2023-01-09T21:19:58.682Z,172.07
2023-01-09T21:23:01.892Z,161.68
2023-01-09T21:26:13.935Z,160.65
2023-01-09T21:29:17.103Z,131.27
2023-01-09T21:32:20.451Z,136.35
2023-01-09T21:35:23.460Z,122.17
2023-01-09T21:38:27.775Z,116.97
2023-01-09T21:41:49.332Z,134.27
2023-01-09T21:45:10.924Z,97.43
2023-01-09T21:48:14.614Z,88.60
2023-01-09T21:51:18.465Z,102.70
2023-01-09T21:54:23.699Z,53.25
2023-01-09T21:57:26.963Z,93.15
2023-01-09T22:00:31.104Z,153.35
2023-01-09T22:03:34.341Z,223.32
2023-01-09T22:06:37.393Z,231.95
2023-01-09T22:09:40.492Z,317.27
2023-01-09T22:13:03.475Z,174.70
2023-01-09T22:16:08.360Z,208.48
2023-01-09T22:19:18.013Z,221.52
2023-01-09T22:22:21.183Z,226.18
2023-01-09T22:25:25.115Z,267.35
2023-01-09T22:28:28.373Z,264.35
2023-01-09T22:31:33.481Z,248.15
2023-01-09T22:34:36.638Z,245.40
2023-01-09T22:37:39.853Z,232.02
2023-01-09T22:40:43.829Z,261.07
2023-01-09T22:43:47.052Z,213.05
2023-01-09T22:46:50.199Z,208.48
2023-01-09T22:49:53.881Z,249.20
2023-01-09T22:52:57.164Z,147.00
2023-01-09T22:56:04.172Z,247.45
2023-01-09T22:59:08.583Z,225.50
2023-01-09T23:05:15.305Z,203.27
2023-01-09T23:08:18.388Z,238.20
2023-01-09T23:11:47.540Z,236.52
2023-01-09T23:14:50.713Z,233.52
2023-01-09T23:17:53.768Z,247.80
2023-01-09T23:20:59.383Z,242.98
2023-01-09T23:24:02.834Z,154.82
2023-01-09T23:27:06.332Z,168.20
2023-01-09T23:30:10.870Z,123.60
2023-01-09T23:33:14.619Z,163.88
2023-01-09T23:36:17.748Z,182.60
2023-01-09T23:39:21.077Z,140.85
2023-01-09T23:42:42.688Z,161.93
2023-01-09T23:45:46.890Z,121.32
2023-01-09T23:51:53.008Z,158.57
2023-01-09T23:54:57.319Z,134.98
2023-01-09T23:58:00.449Z,195.45
